createdAt,value
2023-05-09T00:00:54.795Z,108.41
2023-05-09T00:01:54.719Z,109.05
2023-05-09T00:02:54.725Z,106.71
2023-05-09T00:03:54.730Z,111.03
2023-05-09T00:04:54.682Z,111.20
2023-05-09T00:05:54.664Z,109.93
2023-05-09T00:06:54.708Z,108.90
2023-05-09T00:07:54.660Z,106.65
2023-05-09T00:08:54.649Z,108.27
2023-05-09T00:09:54.649Z,107.02
2023-05-09T00:10:54.631Z,107.06
2023-05-09T00:11:54.617Z,106.68
2023-05-09T00:12:54.645Z,108.55
2023-05-09T00:13:54.961Z,107.08
2023-05-09T00:14:54.612Z,106.79
2023-05-09T00:15:54.590Z,108.33
2023-05-09T00:16:54.704Z,108.42
2023-05-09T00:17:54.676Z,105.74
2023-05-09T00:18:54.584Z,106.61
2023-05-09T00:19:54.570Z,106.50
2023-05-09T00:20:54.595Z,107.92
2023-05-09T00:21:54.553Z,108.68
2023-05-09T00:22:54.551Z,106.07
2023-05-09T00:23:54.559Z,107.98
2023-05-09T00:24:54.545Z,106.56
2023-05-09T00:25:54.556Z,106.56
2023-05-09T00:26:54.517Z,106.34
2023-05-09T00:27:54.514Z,102.91
2023-05-09T00:28:54.528Z,106.14
2023-05-09T00:29:54.482Z,106.74
2023-05-09T00:30:54.491Z,107.08
2023-05-09T00:31:54.503Z,104.28
2023-05-09T00:32:54.610Z,104.76
2023-05-09T00:33:54.494Z,104.27
2023-05-09T00:34:54.464Z,105.51
2023-05-09T00:35:54.447Z,106.28
2023-05-09T00:36:54.463Z,105.58
2023-05-09T00:37:54.452Z,105.37
2023-05-09T00:38:54.434Z,106.34
2023-05-09T00:39:54.424Z,105.19
2023-05-09T00:40:54.410Z,105.37
2023-05-09T00:41:54.440Z,105.59
2023-05-09T00:42:54.408Z,103.43
2023-05-09T00:43:54.417Z,105.29
2023-05-09T00:44:54.401Z,105.69
2023-05-09T00:45:54.380Z,103.86
2023-05-09T00:46:54.397Z,103.08
2023-05-09T00:47:54.388Z,103.98
2023-05-09T00:48:54.471Z,102.53
2023-05-09T00:49:54.345Z,104.64
2023-05-09T00:50:54.352Z,103.39
2023-05-09T00:51:54.344Z,104.21
2023-05-09T00:52:54.329Z,102.15
2023-05-09T00:53:54.335Z,104.05
2023-05-09T00:54:54.331Z,102.47
2023-05-09T00:55:54.320Z,104.13
2023-05-09T00:56:54.304Z,106.14
2023-05-09T00:57:54.301Z,102.60
2023-05-09T00:58:54.311Z,102.65
2023-05-09T00:59:54.317Z,102.68
2023-05-09T01:00:54.275Z,102.00
2023-05-09T01:01:54.300Z,101.90
2023-05-09T01:02:54.343Z,105.35
2023-05-09T01:03:54.315Z,101.93
2023-05-09T01:04:54.341Z,100.46
2023-05-09T01:05:54.233Z,102.25
2023-05-09T01:06:54.268Z,102.03
2023-05-09T01:07:54.240Z,101.40
2023-05-09T01:08:54.236Z,103.38
2023-05-09T01:09:54.237Z,103.21
2023-05-09T01:10:54.239Z,100.61
2023-05-09T01:11:54.221Z,103.05
2023-05-09T01:12:54.218Z,102.30
2023-05-09T01:13:54.194Z,102.21
2023-05-09T01:14:54.225Z,102.19
2023-05-09T01:15:54.204Z,102.39
2023-05-09T01:16:54.167Z,101.69
2023-05-09T01:17:54.190Z,102.22
2023-05-09T01:18:54.153Z,103.04
2023-05-09T01:19:54.141Z,101.90
2023-05-09T01:20:54.245Z,101.90
2023-05-09T01:21:54.205Z,99.55
2023-05-09T01:22:54.122Z,102.79
2023-05-09T01:23:54.149Z,100.74
2023-05-09T01:24:54.103Z,102.24
2023-05-09T01:25:54.097Z,101.90
2023-05-09T01:26:54.097Z,100.91
2023-05-09T01:27:54.084Z,100.32
2023-05-09T01:28:54.103Z,102.11
2023-05-09T01:29:54.104Z,101.48
2023-05-09T01:30:54.154Z,99.60
2023-05-09T01:31:54.061Z,101.35
2023-05-09T01:32:54.133Z,101.86
2023-05-09T01:33:54.056Z,99.47
2023-05-09T01:34:54.046Z,98.92
2023-05-09T01:35:54.037Z,102.98
2023-05-09T01:36:54.120Z,99.58
2023-05-09T01:37:54.026Z,99.24
2023-05-09T01:38:54.023Z,100.07
2023-05-09T01:39:54.008Z,96.78
2023-05-09T01:40:54.010Z,100.55
2023-05-09T01:41:54.015Z,99.13
2023-05-09T01:42:53.994Z,100.34
2023-05-09T01:43:54.043Z,97.93
2023-05-09T01:44:54.001Z,98.57
2023-05-09T01:45:54.013Z,99.15
2023-05-09T01:46:54.116Z,99.35
2023-05-09T01:47:54.112Z,98.86
2023-05-09T01:48:53.955Z,101.43
2023-05-09T01:49:53.966Z,96.69
2023-05-09T01:50:53.936Z,102.67
2023-05-09T01:51:53.947Z,101.86
2023-05-09T01:52:54.015Z,102.13
2023-05-09T01:53:53.920Z,99.99
2023-05-09T01:54:53.904Z,100.73
2023-05-09T01:55:53.918Z,100.12
2023-05-09T01:56:53.913Z,98.86
2023-05-09T01:57:53.900Z,97.28
2023-05-09T01:58:53.903Z,100.45
2023-05-09T01:59:53.866Z,100.90
2023-05-09T02:00:53.895Z,99.87
2023-05-09T02:01:53.919Z,100.66
2023-05-09T02:02:53.980Z,100.71
2023-05-09T02:03:53.862Z,100.08
2023-05-09T02:04:53.857Z,97.16
2023-05-09T02:05:53.878Z,97.92
2023-05-09T02:06:53.854Z,100.23
2023-05-09T02:07:53.843Z,97.52
2023-05-09T02:08:53.899Z,98.91
2023-05-09T02:09:53.812Z,97.68
2023-05-09T02:10:53.829Z,98.56
2023-05-09T02:11:53.809Z,95.17
2023-05-09T02:12:53.825Z,98.14
2023-05-09T02:13:53.782Z,99.65
2023-05-09T02:14:53.769Z,96.78
2023-05-09T02:15:53.784Z,99.01
2023-05-09T02:16:53.850Z,98.30
2023-05-09T02:17:53.826Z,95.33
2023-05-09T02:18:53.767Z,98.63
2023-05-09T02:19:53.755Z,98.52
2023-05-09T02:20:53.780Z,99.54
2023-05-09T02:21:53.750Z,97.54
2023-05-09T02:22:53.733Z,99.41
2023-05-09T02:23:53.729Z,98.60
2023-05-09T02:24:53.793Z,101.25
2023-05-09T02:25:53.713Z,96.10
2023-05-09T02:26:53.699Z,98.28
2023-05-09T02:27:53.703Z,98.37
2023-05-09T02:28:53.725Z,96.78
2023-05-09T02:29:53.731Z,93.67
2023-05-09T02:30:53.716Z,95.29
2023-05-09T02:31:53.813Z,96.86
2023-05-09T02:32:53.847Z,95.26
2023-05-09T02:33:53.750Z,96.81
2023-05-09T02:34:53.756Z,95.44
2023-05-09T02:35:53.761Z,97.31
2023-05-09T02:36:53.763Z,98.05
2023-05-09T02:37:53.763Z,95.55
2023-05-09T02:38:53.744Z,97.24
2023-05-09T02:39:53.787Z,97.78
2023-05-09T02:40:53.854Z,98.75
2023-05-09T02:41:53.788Z,94.18
2023-05-09T02:42:53.801Z,101.00
2023-05-09T02:43:53.805Z,97.66
2023-05-09T02:44:53.799Z,97.86
2023-05-09T02:45:53.813Z,97.51
2023-05-09T02:46:53.833Z,96.92
2023-05-09T02:47:53.860Z,96.19
2023-05-09T02:48:53.853Z,97.65
2023-05-09T02:49:53.848Z,95.31
2023-05-09T02:50:53.824Z,97.51
2023-05-09T02:51:53.876Z,94.42
2023-05-09T02:52:53.856Z,96.22
2023-05-09T02:53:53.865Z,94.44
2023-05-09T02:54:53.890Z,96.75
2023-05-09T02:55:53.886Z,98.69
2023-05-09T02:56:53.923Z,95.16
2023-05-09T02:58:02.145Z,96.82
2023-05-09T02:58:54.831Z,97.04
2023-05-09T02:59:53.814Z,97.16
2023-05-09T03:00:53.826Z,98.12
2023-05-09T03:01:53.832Z,95.36
2023-05-09T03:02:53.973Z,96.84
2023-05-09T03:03:53.823Z,97.12
2023-05-09T03:04:53.765Z,96.98
2023-05-09T03:05:53.822Z,97.67
2023-05-09T03:06:53.767Z,96.45
2023-05-09T03:07:53.761Z,96.24
2023-05-09T03:08:53.751Z,96.35
2023-05-09T03:09:53.737Z,97.40
2023-05-09T03:10:53.740Z,94.16
2023-05-09T03:11:53.743Z,94.63
2023-05-09T03:12:53.901Z,91.87
2023-05-09T03:13:53.732Z,96.11
2023-05-09T03:14:53.716Z,92.64
2023-05-09T03:15:53.722Z,95.00
2023-05-09T03:16:53.719Z,95.18
2023-05-09T03:17:53.709Z,95.74
2023-05-09T03:18:53.689Z,91.74
2023-05-09T03:19:53.692Z,96.11
2023-05-09T03:20:53.664Z,93.24
2023-05-09T03:21:53.659Z,95.83
2023-05-09T03:22:53.657Z,94.14
2023-05-09T03:23:53.656Z,94.29
2023-05-09T03:24:53.648Z,96.09
2023-05-09T03:25:53.630Z,93.62
2023-05-09T03:26:53.637Z,93.42
2023-05-09T03:27:53.647Z,93.43
2023-05-09T03:28:53.712Z,97.47
2023-05-09T03:29:53.620Z,94.98
2023-05-09T03:30:53.596Z,95.37
2023-05-09T03:31:53.691Z,93.76
2023-05-09T03:32:53.642Z,92.00
2023-05-09T03:33:53.591Z,96.43
2023-05-09T03:34:53.574Z,93.42
2023-05-09T03:35:53.580Z,94.95
2023-05-09T03:36:53.546Z,93.68
2023-05-09T03:37:53.610Z,94.95
2023-05-09T03:38:53.547Z,94.76
2023-05-09T03:39:53.574Z,92.83
2023-05-09T03:40:53.530Z,92.10
2023-05-09T03:41:53.522Z,93.33
2023-05-09T03:42:53.587Z,91.29
2023-05-09T03:43:53.517Z,91.15
2023-05-09T03:44:53.626Z,93.37
2023-05-09T03:45:53.505Z,93.67
2023-05-09T03:46:53.571Z,94.90
2023-05-09T03:47:53.546Z,90.76
2023-05-09T03:48:53.485Z,94.34
2023-05-09T03:49:53.552Z,88.78
2023-05-09T03:50:53.468Z,91.01
2023-05-09T03:51:53.478Z,94.43
2023-05-09T03:52:53.470Z,94.59
2023-05-09T03:53:53.458Z,90.95
2023-05-09T03:54:53.448Z,90.93
2023-05-09T03:55:53.450Z,93.07
2023-05-09T03:56:53.428Z,92.17
2023-05-09T03:57:53.431Z,93.61
2023-05-09T03:58:53.538Z,90.20
2023-05-09T03:59:53.447Z,92.42
2023-05-09T04:00:53.489Z,91.88
2023-05-09T04:01:53.421Z,91.46
2023-05-09T04:02:53.504Z,91.67
2023-05-09T04:03:53.438Z,94.29
2023-05-09T04:04:53.400Z,93.70
2023-05-09T04:05:53.371Z,92.63
2023-05-09T04:06:53.360Z,92.31
2023-05-09T04:07:53.388Z,90.48
2023-05-09T04:08:53.368Z,92.06
2023-05-09T04:09:53.357Z,90.31
2023-05-09T04:10:53.373Z,92.48
2023-05-09T04:11:53.333Z,89.77
2023-05-09T04:12:53.376Z,90.97
2023-05-09T04:13:53.322Z,90.12
2023-05-09T04:14:53.341Z,91.88
2023-05-09T04:15:53.329Z,93.31
2023-05-09T04:16:53.422Z,92.34
2023-05-09T04:17:53.347Z,94.45
2023-05-09T04:18:53.313Z,90.27
2023-05-09T04:19:53.334Z,89.75
2023-05-09T04:20:53.294Z,88.98
2023-05-09T04:21:53.277Z,91.32
2023-05-09T04:22:53.286Z,90.95
2023-05-09T04:23:53.285Z,91.36
2023-05-09T04:24:53.257Z,89.31
2023-05-09T04:25:53.248Z,90.92
2023-05-09T04:26:53.261Z,91.61
2023-05-09T04:27:53.297Z,91.42
2023-05-09T04:28:53.231Z,89.71
2023-05-09T04:29:53.230Z,93.99
2023-05-09T04:30:53.282Z,90.27
2023-05-09T04:31:53.381Z,88.95
2023-05-09T04:32:53.379Z,92.16
2023-05-09T04:33:53.232Z,91.25
2023-05-09T04:34:53.202Z,87.73
2023-05-09T04:35:53.184Z,89.66
2023-05-09T04:36:53.197Z,89.36
2023-05-09T04:37:53.186Z,89.84
2023-05-09T04:38:53.174Z,89.79
2023-05-09T04:39:53.195Z,93.03
2023-05-09T04:40:53.140Z,89.44
2023-05-09T04:41:53.162Z,89.78
2023-05-09T04:42:53.157Z,90.51
2023-05-09T04:43:53.219Z,85.28
2023-05-09T04:44:53.182Z,88.25
2023-05-09T04:45:53.193Z,89.22
2023-05-09T04:46:53.138Z,89.68
2023-05-09T04:47:53.212Z,89.21
2023-05-09T04:48:53.202Z,87.40
2023-05-09T04:49:53.134Z,85.13
2023-05-09T04:50:53.095Z,90.57
2023-05-09T04:51:53.103Z,87.88
2023-05-09T04:52:53.089Z,88.04
2023-05-09T04:53:53.100Z,89.35
2023-05-09T04:54:53.099Z,85.58
2023-05-09T04:55:53.053Z,88.27
2023-05-09T04:56:53.225Z,88.06
2023-05-09T04:57:53.041Z,89.12
2023-05-09T04:58:53.063Z,88.01
2023-05-09T04:59:53.059Z,87.08
2023-05-09T05:00:53.034Z,86.77
2023-05-09T05:01:53.037Z,91.32
2023-05-09T05:02:53.080Z,90.33
2023-05-09T05:03:52.998Z,85.86
2023-05-09T05:05:03.020Z,84.88
2023-05-09T05:05:54.078Z,85.31
2023-05-09T05:06:52.970Z,86.27
2023-05-09T05:07:52.977Z,87.55
2023-05-09T05:08:52.970Z,87.51
2023-05-09T05:09:53.002Z,86.04
2023-05-09T05:10:52.973Z,86.86
2023-05-09T05:11:59.880Z,86.71
2023-05-09T05:12:53.992Z,86.92
2023-05-09T05:13:52.949Z,87.15
2023-05-09T05:14:52.919Z,87.11
2023-05-09T05:15:52.984Z,84.66
2023-05-09T05:16:52.923Z,86.58
2023-05-09T05:17:52.980Z,86.26
2023-05-09T05:18:52.916Z,86.64
2023-05-09T05:19:52.897Z,86.85
2023-05-09T05:20:52.975Z,86.50
2023-05-09T05:21:52.894Z,83.85
2023-05-09T05:22:52.984Z,84.45
2023-05-09T05:23:52.882Z,83.72
2023-05-09T05:24:52.868Z,85.01
2023-05-09T05:25:52.902Z,86.51
2023-05-09T05:26:52.856Z,84.96
2023-05-09T05:27:52.968Z,84.06
2023-05-09T05:28:52.842Z,84.97
2023-05-09T05:29:52.939Z,85.80
2023-05-09T05:30:52.914Z,82.25
2023-05-09T05:31:52.938Z,82.43
2023-05-09T05:32:53.093Z,81.05
2023-05-09T05:33:52.834Z,81.28
2023-05-09T05:34:52.798Z,82.86
2023-05-09T05:35:52.826Z,87.03
2023-05-09T05:36:52.858Z,95.04
2023-05-09T05:37:52.775Z,95.61
2023-05-09T05:38:52.768Z,105.45
2023-05-09T05:39:52.758Z,115.83
2023-05-09T05:40:52.765Z,117.13
2023-05-09T05:41:52.875Z,124.36
2023-05-09T05:42:53.099Z,137.84
2023-05-09T05:43:54.354Z,155.93
2023-05-09T05:44:52.737Z,154.84
2023-05-09T05:45:52.752Z,158.42
2023-05-09T05:46:52.738Z,161.99
2023-05-09T05:47:53.170Z,171.30
2023-05-09T05:48:52.707Z,180.01
2023-05-09T05:49:52.688Z,186.96
2023-05-09T05:50:52.693Z,192.84
2023-05-09T05:51:52.827Z,201.69
2023-05-09T05:52:52.793Z,211.25
2023-05-09T05:53:52.670Z,213.79
2023-05-09T05:54:52.708Z,223.35
2023-05-09T05:55:52.726Z,228.09
2023-05-09T05:56:52.680Z,236.21
2023-05-09T05:57:52.709Z,244.11
2023-05-09T05:58:52.652Z,249.21
2023-05-09T05:59:52.627Z,246.82
2023-05-09T06:00:52.618Z,250.00
2023-05-09T06:01:52.692Z,249.09
2023-05-09T06:02:53.634Z,247.44
2023-05-09T06:03:52.760Z,249.14
2023-05-09T06:04:53.906Z,247.71
2023-05-09T06:05:52.611Z,248.12
2023-05-09T06:06:52.582Z,248.88
2023-05-09T06:07:52.620Z,244.31
2023-05-09T06:08:52.679Z,240.73
2023-05-09T06:09:52.612Z,226.58
2023-05-09T06:10:52.749Z,222.68
2023-05-09T06:11:52.561Z,213.18
2023-05-09T06:12:52.725Z,203.29
2023-05-09T06:13:52.610Z,201.05
2023-05-09T06:14:52.651Z,191.14
2023-05-09T06:15:52.533Z,183.24
2023-05-09T06:16:52.547Z,179.67
2023-05-09T06:17:52.698Z,172.94
2023-05-09T06:18:54.201Z,162.12
2023-05-09T06:19:52.501Z,158.15
2023-05-09T06:20:52.491Z,151.04
2023-05-09T06:21:52.560Z,148.49
2023-05-09T06:22:52.534Z,141.35
2023-05-09T06:24:06.664Z,138.92
2023-05-09T06:24:53.475Z,148.49
2023-05-09T06:25:52.447Z,137.44
2023-05-09T06:26:52.464Z,132.69
2023-05-09T06:27:52.509Z,129.29
2023-05-09T06:28:52.457Z,130.19
2023-05-09T06:29:52.428Z,127.92
2023-05-09T06:30:52.421Z,129.21
2023-05-09T06:31:52.542Z,125.53
2023-05-09T06:32:52.703Z,127.89
2023-05-09T06:33:52.476Z,125.37
2023-05-09T06:34:52.458Z,125.80
2023-05-09T06:35:52.397Z,124.57
2023-05-09T06:36:52.425Z,123.81
2023-05-09T06:37:52.643Z,124.28
2023-05-09T06:38:52.646Z,130.93
2023-05-09T06:39:52.369Z,130.29
2023-05-09T06:40:52.457Z,136.80
2023-05-09T06:41:52.362Z,135.20
2023-05-09T06:42:52.375Z,133.69
2023-05-09T06:43:52.372Z,137.33
2023-05-09T06:44:52.400Z,135.98
2023-05-09T06:45:52.349Z,137.72
2023-05-09T06:46:52.346Z,135.10
2023-05-09T06:47:52.441Z,129.84
2023-05-09T06:48:52.387Z,132.79
2023-05-09T06:49:52.307Z,135.34
2023-05-09T06:50:52.290Z,135.76
2023-05-09T06:51:52.363Z,135.76
2023-05-09T06:52:52.317Z,137.34
2023-05-09T06:53:52.334Z,141.27
2023-05-09T06:54:52.256Z,148.69
2023-05-09T06:55:52.434Z,149.49
2023-05-09T06:56:52.378Z,157.77
2023-05-09T06:57:52.251Z,157.69
2023-05-09T06:58:52.303Z,161.46
2023-05-09T06:59:52.234Z,162.81
2023-05-09T07:00:52.232Z,167.69
2023-05-09T07:01:52.297Z,166.71
2023-05-09T07:02:52.274Z,154.47
2023-05-09T07:03:52.622Z,150.92
2023-05-09T07:04:52.300Z,142.42
2023-05-09T07:05:52.198Z,140.94
2023-05-09T07:06:52.214Z,139.62
2023-05-09T07:07:52.189Z,138.31
2023-05-09T07:08:52.522Z,130.27
2023-05-09T07:09:55.278Z,138.43
2023-05-09T07:10:53.211Z,138.97
2023-05-09T07:11:52.217Z,141.48
2023-05-09T07:12:52.310Z,143.98
2023-05-09T07:13:52.189Z,149.59
2023-05-09T07:14:52.230Z,161.58
2023-05-09T07:15:52.210Z,168.55
2023-05-09T07:16:52.222Z,171.84
2023-05-09T07:17:52.286Z,174.72
2023-05-09T07:18:52.138Z,176.20
2023-05-09T07:19:52.097Z,177.11
2023-05-09T07:20:52.274Z,178.77
2023-05-09T07:21:52.129Z,183.31
2023-05-09T07:22:52.124Z,185.63
2023-05-09T07:23:52.292Z,187.34
2023-05-09T07:24:52.096Z,188.23
2023-05-09T07:25:52.078Z,182.10
2023-05-09T07:26:52.075Z,181.45
2023-05-09T07:27:52.102Z,184.68
2023-05-09T07:28:52.384Z,189.82
2023-05-09T07:29:52.056Z,194.62
2023-05-09T07:30:52.058Z,195.80
2023-05-09T07:31:52.093Z,195.83
2023-05-09T07:32:52.250Z,202.95
2023-05-09T07:33:52.054Z,195.18
2023-05-09T07:34:52.152Z,198.92
2023-05-09T07:35:52.040Z,203.80
2023-05-09T07:36:52.031Z,209.17
2023-05-09T07:37:52.008Z,211.55
2023-05-09T07:38:52.260Z,217.17
2023-05-09T07:39:52.092Z,221.08
2023-05-09T07:40:51.974Z,228.22
2023-05-09T07:41:52.017Z,231.81
2023-05-09T07:42:51.964Z,236.85
2023-05-09T07:43:51.975Z,233.25
2023-05-09T07:44:52.139Z,235.32
2023-05-09T07:45:52.171Z,235.99
2023-05-09T07:46:52.201Z,235.01
2023-05-09T07:47:52.296Z,235.73
2023-05-09T07:48:52.332Z,228.93
2023-05-09T07:49:52.380Z,228.49
2023-05-09T07:50:52.408Z,228.30
2023-05-09T07:51:52.481Z,221.61
2023-05-09T07:52:52.590Z,223.97
2023-05-09T07:53:52.643Z,229.61
2023-05-09T07:54:52.758Z,229.49
2023-05-09T07:55:52.726Z,225.99
2023-05-09T07:56:52.850Z,225.62
2023-05-09T07:57:52.850Z,221.71
2023-05-09T07:58:55.516Z,211.81
2023-05-09T07:59:53.157Z,210.74
2023-05-09T08:00:53.000Z,210.81
2023-05-09T08:01:52.948Z,215.35
2023-05-09T08:02:53.099Z,222.66
2023-05-09T08:03:53.024Z,234.39
2023-05-09T08:04:52.885Z,236.63
2023-05-09T08:05:52.912Z,237.02
2023-05-09T08:06:52.862Z,242.18
2023-05-09T08:07:52.885Z,243.77
2023-05-09T08:08:52.957Z,249.13
2023-05-09T08:09:52.889Z,246.41
2023-05-09T08:10:52.869Z,232.77
2023-05-09T08:11:52.862Z,228.16
2023-05-09T08:12:52.919Z,226.25
2023-05-09T08:13:52.861Z,225.71
2023-05-09T08:14:52.843Z,225.23
2023-05-09T08:15:52.855Z,224.22
2023-05-09T08:16:52.902Z,222.21
2023-05-09T08:17:52.846Z,218.12
2023-05-09T08:18:52.940Z,223.89
2023-05-09T08:19:52.791Z,223.13
2023-05-09T08:20:52.811Z,214.08
2023-05-09T08:21:52.771Z,215.41
2023-05-09T08:22:52.793Z,217.50
2023-05-09T08:23:53.194Z,215.73
2023-05-09T08:24:52.819Z,211.59
2023-05-09T08:25:52.774Z,202.25
2023-05-09T08:26:52.739Z,203.85
2023-05-09T08:27:53.174Z,205.01
2023-05-09T08:28:53.156Z,200.73
2023-05-09T08:29:52.738Z,194.14
2023-05-09T08:30:52.764Z,190.56
2023-05-09T08:31:52.889Z,191.04
2023-05-09T08:32:52.951Z,188.78
2023-05-09T08:33:52.739Z,186.74
2023-05-09T08:34:52.783Z,187.24
2023-05-09T08:35:52.686Z,187.90
2023-05-09T08:36:52.701Z,183.25
2023-05-09T08:37:52.716Z,180.63
2023-05-09T08:38:53.163Z,182.21
2023-05-09T08:39:53.185Z,173.51
2023-05-09T08:40:52.751Z,176.16
2023-05-09T08:41:52.822Z,180.15
2023-05-09T08:42:52.964Z,178.65
2023-05-09T08:43:52.974Z,173.63
2023-05-09T08:44:52.958Z,175.95
2023-05-09T08:45:52.998Z,178.24
2023-05-09T08:46:53.085Z,173.10
2023-05-09T08:47:53.116Z,167.53
2023-05-09T08:48:53.223Z,173.65
2023-05-09T08:49:53.650Z,179.00
2023-05-09T08:50:53.232Z,161.12
2023-05-09T08:51:53.304Z,165.48
2023-05-09T08:52:53.315Z,166.24
2023-05-09T08:53:53.662Z,148.08
2023-05-09T08:54:53.437Z,167.00
2023-05-09T08:55:53.425Z,174.86
2023-05-09T08:56:53.484Z,179.08
2023-05-09T08:57:53.511Z,163.47
2023-05-09T08:58:53.605Z,174.24
2023-05-09T08:59:53.572Z,178.61
2023-05-09T09:00:53.609Z,182.99
2023-05-09T09:01:53.725Z,193.52
2023-05-09T09:02:53.743Z,187.08
2023-05-09T09:03:53.737Z,215.31
2023-05-09T09:04:53.870Z,223.36
2023-05-09T09:05:53.918Z,227.91
2023-05-09T09:06:53.816Z,240.99
2023-05-09T09:07:53.853Z,241.69
2023-05-09T09:08:53.913Z,247.23
2023-05-09T09:09:53.891Z,249.66
2023-05-09T09:10:54.783Z,250.00
2023-05-09T09:11:53.970Z,249.39
2023-05-09T09:12:54.064Z,245.70
2023-05-09T09:13:54.037Z,241.55
2023-05-09T09:14:54.021Z,250.00
2023-05-09T09:15:54.088Z,250.00
2023-05-09T09:16:54.119Z,246.41
2023-05-09T09:17:54.112Z,242.80
2023-05-09T09:18:54.161Z,244.18
2023-05-09T09:19:54.146Z,241.60
2023-05-09T09:20:54.307Z,232.46
2023-05-09T09:21:54.223Z,232.92
2023-05-09T09:22:54.221Z,224.57
2023-05-09T09:23:54.392Z,218.97
2023-05-09T09:24:54.281Z,223.55
2023-05-09T09:25:54.358Z,215.77
2023-05-09T09:26:54.409Z,217.00
2023-05-09T09:27:54.356Z,215.41
2023-05-09T09:28:54.624Z,205.04
2023-05-09T09:29:54.419Z,193.85
2023-05-09T09:30:54.437Z,190.49
2023-05-09T09:31:54.510Z,177.05
2023-05-09T09:32:54.604Z,178.87
2023-05-09T09:33:54.531Z,171.46
2023-05-09T09:34:54.565Z,168.42
2023-05-09T09:35:54.616Z,167.93
2023-05-09T09:36:54.801Z,167.51
2023-05-09T09:37:54.670Z,173.54
2023-05-09T09:38:54.746Z,175.50
2023-05-09T09:39:54.684Z,172.13
2023-05-09T09:40:54.712Z,177.66
2023-05-09T09:41:54.762Z,171.50
2023-05-09T09:42:54.800Z,168.63
2023-05-09T09:43:55.948Z,170.15
2023-05-09T09:44:55.002Z,147.81
2023-05-09T09:45:55.034Z,151.39
2023-05-09T09:46:55.055Z,156.33
2023-05-09T09:47:55.139Z,166.75
2023-05-09T09:48:55.064Z,170.46
2023-05-09T09:49:55.090Z,169.71
2023-05-09T09:50:55.137Z,156.22
2023-05-09T09:51:55.199Z,142.25
2023-05-09T09:52:55.337Z,111.60
2023-05-09T09:53:55.233Z,111.32
2023-05-09T09:54:55.223Z,118.17
2023-05-09T09:55:55.255Z,116.28
2023-05-09T09:56:55.452Z,107.30
2023-05-09T09:57:55.335Z,100.76
2023-05-09T09:58:55.373Z,101.45
2023-05-09T09:59:55.321Z,103.24
2023-05-09T10:00:55.374Z,102.27
2023-05-09T10:01:55.355Z,108.65
2023-05-09T10:02:55.426Z,107.72
2023-05-09T10:03:55.454Z,98.31
2023-05-09T10:04:55.501Z,86.43
2023-05-09T10:05:55.556Z,89.21
2023-05-09T10:06:55.531Z,61.15
2023-05-09T10:07:55.524Z,3.49
2023-05-09T10:08:55.669Z,8.27
2023-05-09T10:09:55.630Z,12.33
2023-05-09T10:10:55.648Z,20.48
2023-05-09T10:11:55.684Z,43.30
2023-05-09T10:12:55.759Z,56.20
2023-05-09T10:13:55.729Z,63.62
2023-05-09T10:14:56.031Z,58.41
2023-05-09T10:15:56.023Z,40.72
2023-05-09T10:16:55.989Z,28.65
2023-05-09T10:17:56.051Z,29.11
2023-05-09T10:18:55.972Z,32.00
2023-05-09T10:19:55.961Z,33.52
2023-05-09T10:20:55.980Z,25.12
2023-05-09T10:21:56.032Z,24.41
2023-05-09T10:22:56.232Z,30.14
2023-05-09T10:23:56.101Z,45.08
2023-05-09T10:24:57.693Z,26.13
2023-05-09T10:25:56.211Z,25.36
2023-05-09T10:26:56.288Z,29.60
2023-05-09T10:27:56.281Z,28.01
2023-05-09T10:28:56.381Z,25.87
2023-05-09T10:29:56.388Z,26.38
2023-05-09T10:30:56.437Z,38.83
2023-05-09T10:31:56.545Z,34.17
2023-05-09T10:32:56.520Z,24.85
2023-05-09T10:33:56.650Z,25.00
2023-05-09T10:34:56.633Z,25.00
2023-05-09T10:35:56.641Z,25.23
2023-05-09T10:36:56.689Z,27.73
2023-05-09T10:37:56.756Z,32.11
2023-05-09T10:38:56.791Z,43.13
2023-05-09T10:39:56.851Z,32.38
2023-05-09T10:40:56.972Z,32.69
2023-05-09T10:41:56.933Z,43.61
2023-05-09T10:42:56.987Z,43.38
2023-05-09T10:43:57.055Z,54.90
2023-05-09T10:44:57.099Z,56.62
2023-05-09T10:45:57.226Z,50.89
2023-05-09T10:46:57.254Z,62.66
2023-05-09T10:47:57.281Z,54.15
2023-05-09T10:48:57.274Z,42.93
2023-05-09T10:49:57.405Z,29.09
2023-05-09T10:50:57.416Z,27.44
2023-05-09T10:51:57.454Z,37.89
2023-05-09T10:52:57.587Z,38.63
2023-05-09T10:53:57.593Z,45.82
2023-05-09T10:54:57.665Z,49.77
2023-05-09T10:55:57.685Z,62.98
2023-05-09T10:56:57.919Z,76.60
2023-05-09T10:57:57.838Z,84.58
2023-05-09T10:58:57.861Z,97.72
2023-05-09T10:59:58.092Z,99.08
2023-05-09T11:00:58.063Z,104.24
2023-05-09T11:01:58.134Z,107.58
2023-05-09T11:02:58.102Z,114.41
2023-05-09T11:03:58.149Z,118.72
2023-05-09T11:04:58.703Z,129.27
2023-05-09T11:05:58.221Z,136.15
2023-05-09T11:06:58.265Z,139.53
2023-05-09T11:07:58.222Z,143.84
2023-05-09T11:08:58.287Z,147.80
2023-05-09T11:09:58.320Z,151.97
2023-05-09T11:10:58.423Z,156.74
2023-05-09T11:11:58.431Z,155.46
2023-05-09T11:12:58.653Z,154.50
2023-05-09T11:13:58.501Z,147.25
2023-05-09T11:14:58.483Z,92.75
2023-05-09T11:15:58.587Z,62.11
2023-05-09T11:16:58.549Z,41.69
2023-05-09T11:17:58.634Z,23.42
2023-05-09T11:18:58.688Z,6.36
2023-05-09T11:19:58.719Z,16.57
2023-05-09T11:20:58.828Z,16.50
2023-05-09T11:21:58.828Z,22.76
2023-05-09T11:22:58.907Z,29.93
2023-05-09T11:23:58.904Z,25.00
2023-05-09T11:24:58.968Z,17.69
2023-05-09T11:25:59.007Z,38.69
2023-05-09T11:26:59.051Z,44.51
2023-05-09T11:27:59.112Z,40.12
2023-05-09T11:28:59.264Z,40.11
2023-05-09T11:29:59.241Z,25.27
2023-05-09T11:30:59.261Z,29.04
2023-05-09T11:31:59.380Z,24.07
2023-05-09T11:32:59.388Z,36.10
2023-05-09T11:33:59.423Z,27.42
2023-05-09T11:34:59.518Z,40.41
2023-05-09T11:35:59.536Z,53.37
2023-05-09T11:36:59.636Z,61.24
2023-05-09T11:37:59.646Z,63.06
2023-05-09T11:38:59.878Z,69.10
2023-05-09T11:39:59.767Z,73.53
2023-05-09T11:40:59.923Z,80.65
2023-05-09T11:41:59.948Z,80.00
2023-05-09T11:42:59.924Z,84.63
2023-05-09T11:43:59.978Z,83.57
2023-05-09T11:45:00.138Z,86.69
2023-05-09T11:46:00.178Z,82.64
2023-05-09T11:47:00.152Z,77.77
2023-05-09T11:48:00.224Z,80.67
2023-05-09T11:49:00.227Z,76.94
2023-05-09T11:50:00.317Z,77.87
2023-05-09T11:51:00.326Z,84.49
2023-05-09T11:52:00.480Z,83.50
2023-05-09T11:53:00.473Z,84.83
2023-05-09T11:54:00.528Z,82.96
2023-05-09T11:55:00.570Z,82.46
2023-05-09T11:56:00.624Z,81.02
2023-05-09T11:57:00.656Z,78.91
2023-05-09T11:58:00.690Z,79.72
2023-05-09T11:59:00.780Z,84.22
2023-05-09T12:00:00.893Z,88.64
2023-05-09T12:01:00.950Z,87.48
2023-05-09T12:02:00.975Z,87.01
2023-05-09T12:03:01.140Z,88.38
2023-05-09T12:04:01.089Z,90.71
2023-05-09T12:05:01.111Z,91.54
2023-05-09T12:06:01.142Z,98.78
2023-05-09T12:07:01.180Z,94.41
2023-05-09T12:08:01.254Z,97.17
2023-05-09T12:09:01.355Z,90.70
2023-05-09T12:10:01.361Z,84.75
2023-05-09T12:11:01.407Z,83.87
2023-05-09T12:12:01.491Z,89.68
2023-05-09T12:13:01.507Z,91.04
2023-05-09T12:14:01.568Z,97.46
2023-05-09T12:15:01.729Z,93.32
2023-05-09T12:16:01.697Z,92.50
2023-05-09T12:17:01.852Z,89.92
2023-05-09T12:18:01.815Z,87.45
2023-05-09T12:19:01.811Z,90.95
2023-05-09T12:20:01.849Z,89.99
2023-05-09T12:21:01.901Z,93.10
2023-05-09T12:22:02.026Z,88.64
2023-05-09T12:23:02.009Z,93.29
2023-05-09T12:24:02.142Z,103.53
2023-05-09T12:25:02.143Z,100.59
2023-05-09T12:26:02.156Z,91.48
2023-05-09T12:27:02.237Z,94.38
2023-05-09T12:28:02.279Z,98.72
2023-05-09T12:29:02.296Z,104.28
2023-05-09T12:30:02.363Z,107.33
2023-05-09T12:31:02.385Z,109.30
2023-05-09T12:32:02.463Z,111.31
2023-05-09T12:33:02.596Z,111.93
2023-05-09T12:34:02.501Z,109.50
2023-05-09T12:35:02.524Z,107.47
2023-05-09T12:36:02.764Z,109.27
2023-05-09T12:37:02.680Z,109.43
2023-05-09T12:38:02.679Z,107.03
2023-05-09T12:39:02.690Z,106.73
2023-05-09T12:40:02.775Z,107.81